sensor_id;sensor_type;location;lat;lon;timestamp;P1;durP1;ratioP1;P2;durP2;ratioP2
76826;SDS011;65788;52.284;20.890;2022-12-10T00:01:20;19.00;;;14.90;;
76826;SDS011;65788;52.284;20.890;2022-12-10T00:03:52;17.40;;;13.40;;
76826;SDS011;65788;52.284;20.890;2022-12-10T00:06:25;20.10;;;14.50;;
76826;SDS011;65788;52.284;20.890;2022-12-10T00:09:00;20.10;;;15.50;;
76826;SDS011;65788;52.284;20.890;2022-12-10T00:11:33;19.60;;;14.50;;
76826;SDS011;65788;52.284;20.890;2022-12-10T00:14:05;17.90;;;14.60;;
76826;SDS011;65788;52.284;20.890;2022-12-10T00:16:36;19.70;;;15.10;;
76826;SDS011;65788;52.284;20.890;2022-12-10T00:19:08;19.50;;;14.60;;
76826;SDS011;65788;52.284;20.890;2022-12-10T00:21:39;18.30;;;14.10;;
76826;SDS011;65788;52.284;20.890;2022-12-10T00:24:11;19.70;;;14.90;;
76826;SDS011;65788;52.284;20.890;2022-12-10T00:26:42;18.40;;;14.60;;
76826;SDS011;65788;52.284;20.890;2022-12-10T00:29:14;17.90;;;14.30;;
76826;SDS011;65788;52.284;20.890;2022-12-10T00:31:45;20.70;;;15.40;;
76826;SDS011;65788;52.284;20.890;2022-12-10T00:34:16;19.20;;;14.90;;
76826;SDS011;65788;52.284;20.890;2022-12-10T00:36:48;20.40;;;16.10;;
76826;SDS011;65788;52.284;20.890;2022-12-10T00:39:19;19.00;;;15.10;;
76826;SDS011;65788;52.284;20.890;2022-12-10T00:41:50;18.60;;;14.50;;
76826;SDS011;65788;52.284;20.890;2022-12-10T00:44:22;18.40;;;14.30;;
76826;SDS011;65788;52.284;20.890;2022-12-10T00:46:53;19.40;;;15.10;;
76826;SDS011;65788;52.284;20.890;2022-12-10T00:49:24;19.90;;;14.80;;
76826;SDS011;65788;52.284;20.890;2022-12-10T00:51:55;20.80;;;15.00;;
76826;SDS011;65788;52.284;20.890;2022-12-10T00:54:25;19.80;;;14.50;;
76826;SDS011;65788;52.284;20.890;2022-12-10T00:56:56;18.40;;;14.30;;
76826;SDS011;65788;52.284;20.890;2022-12-10T00:59:28;19.20;;;14.70;;
76826;SDS011;65788;52.284;20.890;2022-12-10T01:01:59;18.40;;;14.50;;
76826;SDS011;65788;52.284;20.890;2022-12-10T01:04:31;19.00;;;14.90;;
76826;SDS011;65788;52.284;20.890;2022-12-10T01:07:03;19.10;;;14.80;;
76826;SDS011;65788;52.284;20.890;2022-12-10T01:09:34;18.90;;;14.30;;
76826;SDS011;65788;52.284;20.890;2022-12-10T01:12:06;18.40;;;14.70;;
76826;SDS011;65788;52.284;20.890;2022-12-10T01:14:40;19.90;;;14.80;;
76826;SDS011;65788;52.284;20.890;2022-12-10T01:17:11;19.40;;;14.40;;
76826;SDS011;65788;52.284;20.890;2022-12-10T01:19:42;18.40;;;14.50;;
76826;SDS011;65788;52.284;20.890;2022-12-10T01:22:13;19.60;;;15.10;;
76826;SDS011;65788;52.284;20.890;2022-12-10T01:24:44;18.40;;;14.80;;
76826;SDS011;65788;52.284;20.890;2022-12-10T01:27:15;18.80;;;14.30;;
76826;SDS011;65788;52.284;20.890;2022-12-10T01:29:46;18.60;;;14.90;;
76826;SDS011;65788;52.284;20.890;2022-12-10T01:32:19;21.70;;;15.40;;
76826;SDS011;65788;52.284;20.890;2022-12-10T01:34:50;18.40;;;15.10;;
76826;SDS011;65788;52.284;20.890;2022-12-10T01:37:22;20.10;;;15.10;;
76826;SDS011;65788;52.284;20.890;2022-12-10T01:39:54;21.80;;;15.50;;
76826;SDS011;65788;52.284;20.890;2022-12-10T01:42:25;18.80;;;14.90;;
76826;SDS011;65788;52.284;20.890;2022-12-10T01:45:08;20.90;;;16.10;;
76826;SDS011;65788;52.284;20.890;2022-12-10T01:50:13;18.90;;;14.90;;
76826;SDS011;65788;52.284;20.890;2022-12-10T01:52:44;19.00;;;14.90;;
76826;SDS011;65788;52.284;20.890;2022-12-10T01:58:11;19.80;;;14.60;;
76826;SDS011;65788;52.284;20.890;2022-12-10T02:00:46;19.00;;;14.60;;
76826;SDS011;65788;52.284;20.890;2022-12-10T02:03:27;18.90;;;14.70;;
76826;SDS011;65788;52.284;20.890;2022-12-10T02:06:10;18.40;;;14.80;;
76826;SDS011;65788;52.284;20.890;2022-12-10T02:08:52;18.40;;;15.10;;
76826;SDS011;65788;52.284;20.890;2022-12-10T02:11:33;19.70;;;15.20;;
76826;SDS011;65788;52.284;20.890;2022-12-10T02:14:12;18.50;;;14.80;;
76826;SDS011;65788;52.284;20.890;2022-12-10T02:16:49;20.20;;;14.80;;
76826;SDS011;65788;52.284;20.890;2022-12-10T02:19:30;18.20;;;14.30;;
76826;SDS011;65788;52.284;20.890;2022-12-10T02:22:16;19.50;;;14.60;;
76826;SDS011;65788;52.284;20.890;2022-12-10T02:24:49;19.60;;;15.40;;
76826;SDS011;65788;52.284;20.890;2022-12-10T02:27:25;18.00;;;14.70;;
76826;SDS011;65788;52.284;20.890;2022-12-10T02:30:00;18.90;;;14.90;;
76826;SDS011;65788;52.284;20.890;2022-12-10T02:32:33;20.00;;;15.50;;
76826;SDS011;65788;52.284;20.890;2022-12-10T02:35:09;19.40;;;15.20;;
76826;SDS011;65788;52.284;20.890;2022-12-10T02:37:47;19.90;;;15.20;;
76826;SDS011;65788;52.284;20.890;2022-12-10T02:40:23;19.60;;;14.80;;
76826;SDS011;65788;52.284;20.890;2022-12-10T02:42:58;18.80;;;14.40;;
76826;SDS011;65788;52.284;20.890;2022-12-10T02:45:29;20.20;;;15.70;;
76826;SDS011;65788;52.284;20.890;2022-12-10T02:48:01;20.00;;;14.40;;
76826;SDS011;65788;52.284;20.890;2022-12-10T02:50:34;19.30;;;14.70;;
76826;SDS011;65788;52.284;20.890;2022-12-10T02:53:08;19.50;;;15.00;;
76826;SDS011;65788;52.284;20.890;2022-12-10T02:55:43;20.20;;;14.80;;
76826;SDS011;65788;52.284;20.890;2022-12-10T02:58:27;18.90;;;14.50;;
76826;SDS011;65788;52.284;20.890;2022-12-10T03:01:06;18.70;;;15.10;;
76826;SDS011;65788;52.284;20.890;2022-12-10T03:03:43;17.80;;;14.40;;
76826;SDS011;65788;52.284;20.890;2022-12-10T03:06:20;18.20;;;14.10;;
76826;SDS011;65788;52.284;20.890;2022-12-10T03:08:58;17.80;;;14.20;;
76826;SDS011;65788;52.284;20.890;2022-12-10T03:11:34;19.50;;;15.00;;
76826;SDS011;65788;52.284;20.890;2022-12-10T03:14:08;19.70;;;14.90;;
76826;SDS011;65788;52.284;20.890;2022-12-10T03:16:46;19.30;;;14.80;;
76826;SDS011;65788;52.284;20.890;2022-12-10T03:19:23;18.70;;;14.90;;
76826;SDS011;65788;52.284;20.890;2022-12-10T03:21:57;19.00;;;15.00;;
76826;SDS011;65788;52.284;20.890;2022-12-10T03:24:30;17.50;;;13.90;;
76826;SDS011;65788;52.284;20.890;2022-12-10T03:27:04;18.70;;;14.80;;
76826;SDS011;65788;52.284;20.890;2022-12-10T03:29:38;19.50;;;15.00;;
76826;SDS011;65788;52.284;20.890;2022-12-10T03:32:13;17.40;;;13.90;;
76826;SDS011;65788;52.284;20.890;2022-12-10T03:34:46;18.20;;;14.40;;
76826;SDS011;65788;52.284;20.890;2022-12-10T03:37:19;18.50;;;14.60;;
76826;SDS011;65788;52.284;20.890;2022-12-10T03:39:51;17.30;;;14.10;;
76826;SDS011;65788;52.284;20.890;2022-12-10T03:42:23;17.80;;;13.90;;
76826;SDS011;65788;52.284;20.890;2022-12-10T03:44:57;18.70;;;14.00;;
76826;SDS011;65788;52.284;20.890;2022-12-10T03:47:28;18.80;;;14.30;;
76826;SDS011;65788;52.284;20.890;2022-12-10T03:50:00;18.10;;;14.50;;
76826;SDS011;65788;52.284;20.890;2022-12-10T03:52:31;17.80;;;14.30;;
76826;SDS011;65788;52.284;20.890;2022-12-10T03:55:02;18.20;;;14.20;;
76826;SDS011;65788;52.284;20.890;2022-12-10T03:57:35;18.30;;;13.90;;
76826;SDS011;65788;52.284;20.890;2022-12-10T04:00:07;17.70;;;14.00;;
76826;SDS011;65788;52.284;20.890;2022-12-10T04:02:39;17.90;;;14.00;;
76826;SDS011;65788;52.284;20.890;2022-12-10T04:05:12;17.30;;;13.90;;
76826;SDS011;65788;52.284;20.890;2022-12-10T04:07:44;19.10;;;14.60;;
76826;SDS011;65788;52.284;20.890;2022-12-10T04:10:15;16.30;;;13.00;;
76826;SDS011;65788;52.284;20.890;2022-12-10T04:12:46;17.90;;;13.80;;
76826;SDS011;65788;52.284;20.890;2022-12-10T04:15:39;18.30;;;14.30;;
76826;SDS011;65788;52.284;20.890;2022-12-10T04:18:28;18.40;;;14.30;;
76826;SDS011;65788;52.284;20.890;2022-12-10T04:21:00;18.10;;;14.10;;
76826;SDS011;65788;52.284;20.890;2022-12-10T04:24:07;16.90;;;13.70;;
76826;SDS011;65788;52.284;20.890;2022-12-10T04:26:58;18.00;;;13.90;;
76826;SDS011;65788;52.284;20.890;2022-12-10T04:29:32;17.50;;;13.70;;
76826;SDS011;65788;52.284;20.890;2022-12-10T04:32:06;16.40;;;13.40;;
76826;SDS011;65788;52.284;20.890;2022-12-10T04:34:38;16.30;;;13.10;;
76826;SDS011;65788;52.284;20.890;2022-12-10T04:37:12;18.50;;;14.00;;
76826;SDS011;65788;52.284;20.890;2022-12-10T04:39:43;16.30;;;13.20;;
76826;SDS011;65788;52.284;20.890;2022-12-10T04:42:15;17.30;;;13.40;;
76826;SDS011;65788;52.284;20.890;2022-12-10T04:44:47;16.60;;;13.50;;
76826;SDS011;65788;52.284;20.890;2022-12-10T04:47:19;16.10;;;13.40;;
76826;SDS011;65788;52.284;20.890;2022-12-10T04:49:50;16.80;;;13.30;;
76826;SDS011;65788;52.284;20.890;2022-12-10T04:52:22;17.30;;;13.20;;
76826;SDS011;65788;52.284;20.890;2022-12-10T04:54:54;17.20;;;13.30;;
76826;SDS011;65788;52.284;20.890;2022-12-10T04:57:25;16.20;;;13.80;;
76826;SDS011;65788;52.284;20.890;2022-12-10T04:59:58;16.00;;;13.20;;
76826;SDS011;65788;52.284;20.890;2022-12-10T05:02:31;16.30;;;12.80;;
76826;SDS011;65788;52.284;20.890;2022-12-10T05:05:03;17.40;;;13.10;;
76826;SDS011;65788;52.284;20.890;2022-12-10T05:07:36;16.90;;;13.50;;
76826;SDS011;65788;52.284;20.890;2022-12-10T05:10:08;16.20;;;13.20;;
76826;SDS011;65788;52.284;20.890;2022-12-10T05:12:39;16.10;;;12.80;;
76826;SDS011;65788;52.284;20.890;2022-12-10T05:15:11;16.60;;;13.30;;
76826;SDS011;65788;52.284;20.890;2022-12-10T05:17:42;16.80;;;13.40;;
76826;SDS011;65788;52.284;20.890;2022-12-10T05:20:13;18.00;;;13.90;;
76826;SDS011;65788;52.284;20.890;2022-12-10T05:22:44;17.60;;;12.90;;
76826;SDS011;65788;52.284;20.890;2022-12-10T05:25:32;17.10;;;13.40;;
76826;SDS011;65788;52.284;20.890;2022-12-10T05:30:51;17.20;;;13.00;;
76826;SDS011;65788;52.284;20.890;2022-12-10T05:33:22;16.70;;;12.50;;
76826;SDS011;65788;52.284;20.890;2022-12-10T05:35:54;17.30;;;12.90;;
76826;SDS011;65788;52.284;20.890;2022-12-10T05:38:29;18.20;;;13.60;;
76826;SDS011;65788;52.284;20.890;2022-12-10T05:41:02;19.00;;;13.50;;
76826;SDS011;65788;52.284;20.890;2022-12-10T05:43:34;18.50;;;13.00;;
76826;SDS011;65788;52.284;20.890;2022-12-10T05:46:09;19.40;;;13.20;;
76826;SDS011;65788;52.284;20.890;2022-12-10T05:48:47;17.50;;;13.00;;
76826;SDS011;65788;52.284;20.890;2022-12-10T05:51:19;17.40;;;13.00;;
76826;SDS011;65788;52.284;20.890;2022-12-10T05:53:52;16.80;;;12.60;;
76826;SDS011;65788;52.284;20.890;2022-12-10T05:56:25;18.60;;;13.10;;
76826;SDS011;65788;52.284;20.890;2022-12-10T05:58:58;16.80;;;12.80;;
76826;SDS011;65788;52.284;20.890;2022-12-10T06:01:31;17.40;;;12.80;;
76826;SDS011;65788;52.284;20.890;2022-12-10T06:04:04;18.40;;;13.40;;
76826;SDS011;65788;52.284;20.890;2022-12-10T06:06:36;17.00;;;12.50;;
76826;SDS011;65788;52.284;20.890;2022-12-10T06:09:10;17.30;;;13.10;;
76826;SDS011;65788;52.284;20.890;2022-12-10T06:11:42;18.20;;;12.40;;
76826;SDS011;65788;52.284;20.890;2022-12-10T06:14:13;16.40;;;12.10;;
76826;SDS011;65788;52.284;20.890;2022-12-10T06:16:44;16.70;;;13.00;;
76826;SDS011;65788;52.284;20.890;2022-12-10T06:19:14;17.70;;;13.00;;
76826;SDS011;65788;52.284;20.890;2022-12-10T06:21:45;17.10;;;12.30;;
76826;SDS011;65788;52.284;20.890;2022-12-10T06:24:16;17.40;;;12.70;;
76826;SDS011;65788;52.284;20.890;2022-12-10T06:26:47;16.70;;;12.50;;
76826;SDS011;65788;52.284;20.890;2022-12-10T06:29:19;17.90;;;12.40;;
76826;SDS011;65788;52.284;20.890;2022-12-10T06:31:50;16.30;;;12.40;;
76826;SDS011;65788;52.284;20.890;2022-12-10T06:34:21;16.90;;;12.20;;
76826;SDS011;65788;52.284;20.890;2022-12-10T06:36:52;16.60;;;12.20;;
76826;SDS011;65788;52.284;20.890;2022-12-10T06:39:26;16.60;;;12.00;;
76826;SDS011;65788;52.284;20.890;2022-12-10T06:41:57;15.30;;;11.80;;
76826;SDS011;65788;52.284;20.890;2022-12-10T06:44:28;17.20;;;12.30;;
76826;SDS011;65788;52.284;20.890;2022-12-10T06:46:59;15.10;;;11.30;;
76826;SDS011;65788;52.284;20.890;2022-12-10T06:49:32;16.90;;;12.30;;
76826;SDS011;65788;52.284;20.890;2022-12-10T06:52:03;14.60;;;11.30;;
76826;SDS011;65788;52.284;20.890;2022-12-10T06:54:34;17.40;;;12.40;;
76826;SDS011;65788;52.284;20.890;2022-12-10T06:57:05;17.30;;;12.20;;
76826;SDS011;65788;52.284;20.890;2022-12-10T06:59:36;15.40;;;11.60;;
76826;SDS011;65788;52.284;20.890;2022-12-10T07:02:08;17.00;;;11.70;;
76826;SDS011;65788;52.284;20.890;2022-12-10T07:04:40;15.70;;;11.50;;
76826;SDS011;65788;52.284;20.890;2022-12-10T07:07:11;16.10;;;11.90;;
76826;SDS011;65788;52.284;20.890;2022-12-10T07:09:42;15.70;;;11.80;;
76826;SDS011;65788;52.284;20.890;2022-12-10T07:12:12;14.70;;;11.30;;
76826;SDS011;65788;52.284;20.890;2022-12-10T07:14:44;16.20;;;12.30;;
76826;SDS011;65788;52.284;20.890;2022-12-10T07:17:17;15.60;;;11.60;;
76826;SDS011;65788;52.284;20.890;2022-12-10T07:19:49;15.40;;;11.90;;
76826;SDS011;65788;52.284;20.890;2022-12-10T07:22:20;16.50;;;12.10;;
76826;SDS011;65788;52.284;20.890;2022-12-10T07:24:51;16.00;;;11.30;;
76826;SDS011;65788;52.284;20.890;2022-12-10T07:27:22;15.60;;;11.80;;
76826;SDS011;65788;52.284;20.890;2022-12-10T07:29:53;16.20;;;11.80;;
76826;SDS011;65788;52.284;20.890;2022-12-10T07:32:26;14.50;;;11.00;;
76826;SDS011;65788;52.284;20.890;2022-12-10T07:34:57;15.60;;;11.60;;
76826;SDS011;65788;52.284;20.890;2022-12-10T07:37:28;15.50;;;11.80;;
76826;SDS011;65788;52.284;20.890;2022-12-10T07:39:58;15.30;;;11.40;;
76826;SDS011;65788;52.284;20.890;2022-12-10T07:42:30;15.20;;;12.20;;
76826;SDS011;65788;52.284;20.890;2022-12-10T07:45:01;14.90;;;11.50;;
76826;SDS011;65788;52.284;20.890;2022-12-10T07:47:35;15.20;;;11.60;;
76826;SDS011;65788;52.284;20.890;2022-12-10T07:50:08;15.70;;;11.50;;
76826;SDS011;65788;52.284;20.890;2022-12-10T07:52:39;15.40;;;11.50;;
76826;SDS011;65788;52.284;20.890;2022-12-10T07:55:10;16.10;;;11.80;;
76826;SDS011;65788;52.284;20.890;2022-12-10T07:57:41;16.00;;;11.40;;
76826;SDS011;65788;52.284;20.890;2022-12-10T08:00:13;15.00;;;11.50;;
76826;SDS011;65788;52.284;20.890;2022-12-10T08:02:45;15.10;;;11.60;;
76826;SDS011;65788;52.284;20.890;2022-12-10T08:05:16;14.50;;;10.80;;
76826;SDS011;65788;52.284;20.890;2022-12-10T08:07:48;14.40;;;11.40;;
76826;SDS011;65788;52.284;20.890;2022-12-10T08:10:19;14.90;;;11.90;;
76826;SDS011;65788;52.284;20.890;2022-12-10T08:12:50;15.60;;;11.30;;
76826;SDS011;65788;52.284;20.890;2022-12-10T08:15:22;14.60;;;10.90;;
76826;SDS011;65788;52.284;20.890;2022-12-10T08:17:56;14.40;;;11.00;;
76826;SDS011;65788;52.284;20.890;2022-12-10T08:20:27;14.30;;;10.80;;
76826;SDS011;65788;52.284;20.890;2022-12-10T08:22:59;14.30;;;11.10;;
76826;SDS011;65788;52.284;20.890;2022-12-10T08:25:31;13.90;;;10.80;;
76826;SDS011;65788;52.284;20.890;2022-12-10T08:28:03;13.70;;;10.50;;
76826;SDS011;65788;52.284;20.890;2022-12-10T08:30:37;14.60;;;10.70;;
76826;SDS011;65788;52.284;20.890;2022-12-10T08:33:08;13.10;;;10.30;;
76826;SDS011;65788;52.284;20.890;2022-12-10T08:35:40;13.20;;;9.60;;
76826;SDS011;65788;52.284;20.890;2022-12-10T08:38:11;13.30;;;10.50;;
76826;SDS011;65788;52.284;20.890;2022-12-10T08:40:42;14.10;;;10.40;;
76826;SDS011;65788;52.284;20.890;2022-12-10T08:43:15;13.30;;;10.30;;
76826;SDS011;65788;52.284;20.890;2022-12-10T08:45:47;14.30;;;10.50;;
76826;SDS011;65788;52.284;20.890;2022-12-10T08:48:18;13.80;;;10.60;;
76826;SDS011;65788;52.284;20.890;2022-12-10T08:50:51;13.90;;;10.80;;
76826;SDS011;65788;52.284;20.890;2022-12-10T08:53:24;13.90;;;10.80;;
76826;SDS011;65788;52.284;20.890;2022-12-10T08:55:59;12.80;;;10.30;;
76826;SDS011;65788;52.284;20.890;2022-12-10T08:58:30;13.40;;;10.70;;
76826;SDS011;65788;52.284;20.890;2022-12-10T09:01:02;13.10;;;10.70;;
76826;SDS011;65788;52.284;20.890;2022-12-10T09:03:36;12.60;;;9.90;;
76826;SDS011;65788;52.284;20.890;2022-12-10T09:06:08;13.40;;;10.60;;
76826;SDS011;65788;52.284;20.890;2022-12-10T09:08:41;14.30;;;10.70;;
76826;SDS011;65788;52.284;20.890;2022-12-10T09:11:14;13.90;;;10.70;;
76826;SDS011;65788;52.284;20.890;2022-12-10T09:13:47;14.80;;;10.70;;
76826;SDS011;65788;52.284;20.890;2022-12-10T09:16:19;13.70;;;10.50;;
76826;SDS011;65788;52.284;20.890;2022-12-10T09:18:50;13.10;;;10.40;;
76826;SDS011;65788;52.284;20.890;2022-12-10T09:21:24;13.20;;;10.30;;
76826;SDS011;65788;52.284;20.890;2022-12-10T09:23:56;13.00;;;10.30;;
76826;SDS011;65788;52.284;20.890;2022-12-10T09:26:27;12.40;;;9.80;;
76826;SDS011;65788;52.284;20.890;2022-12-10T09:29:00;13.40;;;10.10;;
76826;SDS011;65788;52.284;20.890;2022-12-10T09:31:32;12.20;;;9.70;;
76826;SDS011;65788;52.284;20.890;2022-12-10T09:34:03;12.20;;;10.10;;
76826;SDS011;65788;52.284;20.890;2022-12-10T09:36:34;12.70;;;10.10;;
76826;SDS011;65788;52.284;20.890;2022-12-10T09:39:07;11.60;;;9.00;;
76826;SDS011;65788;52.284;20.890;2022-12-10T09:44:45;11.40;;;9.10;;
76826;SDS011;65788;52.284;20.890;2022-12-10T09:47:26;11.60;;;9.00;;
76826;SDS011;65788;52.284;20.890;2022-12-10T09:50:09;11.10;;;8.80;;
76826;SDS011;65788;52.284;20.890;2022-12-10T09:52:48;11.60;;;8.70;;
76826;SDS011;65788;52.284;20.890;2022-12-10T09:55:25;12.00;;;8.70;;
76826;SDS011;65788;52.284;20.890;2022-12-10T09:58:00;11.20;;;8.80;;
76826;SDS011;65788;52.284;20.890;2022-12-10T10:00:38;11.50;;;8.70;;
76826;SDS011;65788;52.284;20.890;2022-12-10T10:03:16;11.80;;;9.10;;
76826;SDS011;65788;52.284;20.890;2022-12-10T10:05:50;10.90;;;9.10;;
76826;SDS011;65788;52.284;20.890;2022-12-10T10:08:26;10.80;;;8.80;;
76826;SDS011;65788;52.284;20.890;2022-12-10T10:11:01;12.80;;;9.10;;
76826;SDS011;65788;52.284;20.890;2022-12-10T10:13:38;11.50;;;8.30;;
76826;SDS011;65788;52.284;20.890;2022-12-10T10:16:16;11.70;;;9.60;;
76826;SDS011;65788;52.284;20.890;2022-12-10T10:19:03;11.70;;;8.70;;
76826;SDS011;65788;52.284;20.890;2022-12-10T10:21:44;12.90;;;9.30;;
76826;SDS011;65788;52.284;20.890;2022-12-10T10:26:52;11.60;;;9.10;;
76826;SDS011;65788;52.284;20.890;2022-12-10T10:29:27;11.20;;;8.90;;
76826;SDS011;65788;52.284;20.890;2022-12-10T10:32:11;11.50;;;9.00;;
76826;SDS011;65788;52.284;20.890;2022-12-10T10:34:46;12.10;;;9.00;;
76826;SDS011;65788;52.284;20.890;2022-12-10T10:37:23;11.50;;;9.10;;
76826;SDS011;65788;52.284;20.890;2022-12-10T10:39:59;11.30;;;8.70;;
76826;SDS011;65788;52.284;20.890;2022-12-10T10:42:37;13.10;;;9.10;;
76826;SDS011;65788;52.284;20.890;2022-12-10T10:48:06;11.90;;;8.80;;
76826;SDS011;65788;52.284;20.890;2022-12-10T10:50:45;12.00;;;9.00;;
76826;SDS011;65788;52.284;20.890;2022-12-10T10:56:14;12.10;;;8.90;;
76826;SDS011;65788;52.284;20.890;2022-12-10T10:58:49;12.10;;;8.50;;
76826;SDS011;65788;52.284;20.890;2022-12-10T11:01:43;11.00;;;8.40;;
76826;SDS011;65788;52.284;20.890;2022-12-10T11:04:17;11.30;;;8.50;;
76826;SDS011;65788;52.284;20.890;2022-12-10T11:06:53;11.40;;;8.60;;
76826;SDS011;65788;52.284;20.890;2022-12-10T11:09:30;11.90;;;8.60;;
76826;SDS011;65788;52.284;20.890;2022-12-10T11:12:06;12.30;;;9.00;;
76826;SDS011;65788;52.284;20.890;2022-12-10T11:14:54;13.00;;;9.20;;
76826;SDS011;65788;52.284;20.890;2022-12-10T11:17:26;11.80;;;9.00;;
76826;SDS011;65788;52.284;20.890;2022-12-10T11:20:00;11.80;;;9.00;;
76826;SDS011;65788;52.284;20.890;2022-12-10T11:22:50;11.80;;;8.90;;
76826;SDS011;65788;52.284;20.890;2022-12-10T11:25:24;12.40;;;9.20;;
76826;SDS011;65788;52.284;20.890;2022-12-10T11:28:08;11.40;;;8.50;;
76826;SDS011;65788;52.284;20.890;2022-12-10T11:30:54;12.50;;;9.30;;
76826;SDS011;65788;52.284;20.890;2022-12-10T11:33:34;12.60;;;8.70;;
76826;SDS011;65788;52.284;20.890;2022-12-10T11:36:17;12.50;;;8.90;;
76826;SDS011;65788;52.284;20.890;2022-12-10T11:39:02;11.20;;;8.50;;
76826;SDS011;65788;52.284;20.890;2022-12-10T11:41:52;12.70;;;8.60;;
76826;SDS011;65788;52.284;20.890;2022-12-10T11:44:30;12.20;;;8.70;;
76826;SDS011;65788;52.284;20.890;2022-12-10T11:47:19;12.90;;;8.20;;
76826;SDS011;65788;52.284;20.890;2022-12-10T11:50:03;22.10;;;15.20;;
76826;SDS011;65788;52.284;20.890;2022-12-10T11:52:48;18.80;;;13.20;;
76826;SDS011;65788;52.284;20.890;2022-12-10T11:55:32;21.70;;;14.40;;
76826;SDS011;65788;52.284;20.890;2022-12-10T11:58:16;17.40;;;11.90;;
76826;SDS011;65788;52.284;20.890;2022-12-10T12:01:01;18.50;;;12.80;;
76826;SDS011;65788;52.284;20.890;2022-12-10T12:03:47;20.30;;;13.20;;
76826;SDS011;65788;52.284;20.890;2022-12-10T12:06:47;22.50;;;14.10;;
76826;SDS011;65788;52.284;20.890;2022-12-10T12:09:30;22.70;;;14.40;;
76826;SDS011;65788;52.284;20.890;2022-12-10T12:12:19;18.40;;;12.50;;
76826;SDS011;65788;52.284;20.890;2022-12-10T12:15:03;17.90;;;12.10;;
76826;SDS011;65788;52.284;20.890;2022-12-10T12:17:44;19.10;;;13.10;;
76826;SDS011;65788;52.284;20.890;2022-12-10T12:20:30;20.10;;;13.20;;
76826;SDS011;65788;52.284;20.890;2022-12-10T12:23:10;19.20;;;12.30;;
76826;SDS011;65788;52.284;20.890;2022-12-10T12:25:50;18.00;;;11.90;;
76826;SDS011;65788;52.284;20.890;2022-12-10T12:28:25;18.40;;;12.80;;
76826;SDS011;65788;52.284;20.890;2022-12-10T12:31:05;17.00;;;11.40;;
76826;SDS011;65788;52.284;20.890;2022-12-10T12:33:42;17.80;;;12.40;;
76826;SDS011;65788;52.284;20.890;2022-12-10T12:36:21;17.30;;;11.90;;
76826;SDS011;65788;52.284;20.890;2022-12-10T12:39:01;18.90;;;12.70;;
76826;SDS011;65788;52.284;20.890;2022-12-10T12:41:41;16.90;;;11.90;;
76826;SDS011;65788;52.284;20.890;2022-12-10T12:44:21;15.50;;;10.90;;
76826;SDS011;65788;52.284;20.890;2022-12-10T12:47:02;17.60;;;12.30;;
76826;SDS011;65788;52.284;20.890;2022-12-10T12:49:55;14.60;;;9.90;;
76826;SDS011;65788;52.284;20.890;2022-12-10T12:52:33;14.90;;;10.80;;
76826;SDS011;65788;52.284;20.890;2022-12-10T12:57:52;17.70;;;12.80;;
76826;SDS011;65788;52.284;20.890;2022-12-10T13:00:43;19.40;;;12.50;;
76826;SDS011;65788;52.284;20.890;2022-12-10T13:03:29;15.00;;;10.80;;
76826;SDS011;65788;52.284;20.890;2022-12-10T13:06:28;15.60;;;10.90;;
76826;SDS011;65788;52.284;20.890;2022-12-10T13:15:02;17.10;;;12.10;;
76826;SDS011;65788;52.284;20.890;2022-12-10T13:21:26;19.30;;;13.50;;
76826;SDS011;65788;52.284;20.890;2022-12-10T13:24:09;11.60;;;8.50;;
76826;SDS011;65788;52.284;20.890;2022-12-10T13:27:00;12.90;;;7.90;;
76826;SDS011;65788;52.284;20.890;2022-12-10T13:29:47;11.00;;;8.00;;
76826;SDS011;65788;52.284;20.890;2022-12-10T13:32:41;11.10;;;8.00;;
76826;SDS011;65788;52.284;20.890;2022-12-10T13:35:28;10.60;;;7.50;;
76826;SDS011;65788;52.284;20.890;2022-12-10T13:38:18;10.70;;;7.60;;
76826;SDS011;65788;52.284;20.890;2022-12-10T13:40:58;10.80;;;7.30;;
76826;SDS011;65788;52.284;20.890;2022-12-10T13:43:57;10.40;;;7.50;;
76826;SDS011;65788;52.284;20.890;2022-12-10T13:47:00;10.60;;;7.20;;
76826;SDS011;65788;52.284;20.890;2022-12-10T13:49:53;9.50;;;7.00;;
76826;SDS011;65788;52.284;20.890;2022-12-10T13:52:43;12.10;;;7.40;;
76826;SDS011;65788;52.284;20.890;2022-12-10T13:55:24;11.10;;;7.60;;
76826;SDS011;65788;52.284;20.890;2022-12-10T13:58:13;11.80;;;7.40;;
76826;SDS011;65788;52.284;20.890;2022-12-10T14:01:00;9.90;;;7.20;;
76826;SDS011;65788;52.284;20.890;2022-12-10T14:03:47;11.00;;;7.10;;
76826;SDS011;65788;52.284;20.890;2022-12-10T14:06:33;10.20;;;6.90;;
76826;SDS011;65788;52.284;20.890;2022-12-10T14:09:11;9.30;;;7.00;;
76826;SDS011;65788;52.284;20.890;2022-12-10T14:11:47;9.80;;;7.10;;
76826;SDS011;65788;52.284;20.890;2022-12-10T14:14:25;8.90;;;6.70;;
76826;SDS011;65788;52.284;20.890;2022-12-10T14:17:01;10.10;;;7.00;;
76826;SDS011;65788;52.284;20.890;2022-12-10T14:19:36;9.80;;;6.60;;
76826;SDS011;65788;52.284;20.890;2022-12-10T14:22:14;9.30;;;6.70;;
76826;SDS011;65788;52.284;20.890;2022-12-10T14:27:23;11.10;;;7.10;;
76826;SDS011;65788;52.284;20.890;2022-12-10T14:29:59;9.60;;;6.60;;
76826;SDS011;65788;52.284;20.890;2022-12-10T14:32:35;10.00;;;6.80;;
76826;SDS011;65788;52.284;20.890;2022-12-10T14:35:12;9.90;;;6.90;;
76826;SDS011;65788;52.284;20.890;2022-12-10T14:37:47;9.00;;;6.80;;
76826;SDS011;65788;52.284;20.890;2022-12-10T14:40:21;10.10;;;6.50;;
76826;SDS011;65788;52.284;20.890;2022-12-10T14:42:57;9.80;;;6.60;;
76826;SDS011;65788;52.284;20.890;2022-12-10T14:45:44;10.10;;;6.90;;
76826;SDS011;65788;52.284;20.890;2022-12-10T14:48:24;9.80;;;6.90;;
76826;SDS011;65788;52.284;20.890;2022-12-10T14:50:57;9.70;;;7.20;;
76826;SDS011;65788;52.284;20.890;2022-12-10T14:53:39;10.00;;;6.90;;
76826;SDS011;65788;52.284;20.890;2022-12-10T14:56:11;9.20;;;6.70;;
76826;SDS011;65788;52.284;20.890;2022-12-10T14:58:50;9.80;;;7.00;;
76826;SDS011;65788;52.284;20.890;2022-12-10T15:01:27;10.10;;;6.90;;
76826;SDS011;65788;52.284;20.890;2022-12-10T15:04:04;9.60;;;6.90;;
76826;SDS011;65788;52.284;20.890;2022-12-10T15:06:42;10.90;;;7.50;;
76826;SDS011;65788;52.284;20.890;2022-12-10T15:09:14;10.60;;;7.50;;
76826;SDS011;65788;52.284;20.890;2022-12-10T15:11:53;13.30;;;8.90;;
76826;SDS011;65788;52.284;20.890;2022-12-10T15:16:58;15.10;;;10.60;;
76826;SDS011;65788;52.284;20.890;2022-12-10T15:19:32;17.90;;;11.40;;
76826;SDS011;65788;52.284;20.890;2022-12-10T15:22:16;16.00;;;11.10;;
76826;SDS011;65788;52.284;20.890;2022-12-10T15:24:50;18.90;;;12.20;;
76826;SDS011;65788;52.284;20.890;2022-12-10T15:27:30;17.50;;;11.80;;
76826;SDS011;65788;52.284;20.890;2022-12-10T15:33:02;20.00;;;13.10;;
76826;SDS011;65788;52.284;20.890;2022-12-10T15:35:50;19.10;;;12.70;;
76826;SDS011;65788;52.284;20.890;2022-12-10T15:38:27;19.90;;;13.20;;
76826;SDS011;65788;52.284;20.890;2022-12-10T15:40:59;19.00;;;12.10;;
76826;SDS011;65788;52.284;20.890;2022-12-10T15:43:59;20.00;;;12.80;;